sensor_id;sensor_type;location;lat;lon;timestamp;P1;durP1;ratioP1;P2;durP2;ratioP2
6463;SDS011;3265;42.694;23.282;2023-08-17T00:02:19;10.98;;;7.55;;
6463;SDS011;3265;42.694;23.282;2023-08-17T00:04:45;12.73;;;7.75;;
6463;SDS011;3265;42.694;23.282;2023-08-17T00:07:12;13.23;;;7.35;;
6463;SDS011;3265;42.694;23.282;2023-08-17T00:09:39;12.77;;;7.45;;
6463;SDS011;3265;42.694;23.282;2023-08-17T00:12:06;12.43;;;7.25;;
6463;SDS011;3265;42.694;23.282;2023-08-17T00:14:33;12.05;;;7.18;;
6463;SDS011;3265;42.694;23.282;2023-08-17T00:17:01;16.13;;;7.45;;
6463;SDS011;3265;42.694;23.282;2023-08-17T00:19:28;14.98;;;8.18;;
6463;SDS011;3265;42.694;23.282;2023-08-17T00:21:55;12.35;;;6.95;;
6463;SDS011;3265;42.694;23.282;2023-08-17T00:24:22;12.82;;;7.20;;
6463;SDS011;3265;42.694;23.282;2023-08-17T00:26:48;15.07;;;7.20;;
6463;SDS011;3265;42.694;23.282;2023-08-17T00:29:15;9.57;;;7.28;;
6463;SDS011;3265;42.694;23.282;2023-08-17T00:31:42;11.10;;;7.47;;
6463;SDS011;3265;42.694;23.282;2023-08-17T00:34:10;14.57;;;7.15;;
6463;SDS011;3265;42.694;23.282;2023-08-17T00:36:37;8.43;;;7.07;;
6463;SDS011;3265;42.694;23.282;2023-08-17T00:39:04;15.05;;;6.82;;
6463;SDS011;3265;42.694;23.282;2023-08-17T00:41:31;12.77;;;6.93;;
6463;SDS011;3265;42.694;23.282;2023-08-17T00:43:58;14.32;;;7.30;;
6463;SDS011;3265;42.694;23.282;2023-08-17T00:46:25;12.57;;;6.82;;
6463;SDS011;3265;42.694;23.282;2023-08-17T00:48:53;12.05;;;6.47;;
6463;SDS011;3265;42.694;23.282;2023-08-17T00:51:22;14.13;;;6.68;;
6463;SDS011;3265;42.694;23.282;2023-08-17T00:53:50;10.75;;;6.03;;
6463;SDS011;3265;42.694;23.282;2023-08-17T00:56:17;10.27;;;6.80;;
6463;SDS011;3265;42.694;23.282;2023-08-17T00:58:44;15.07;;;6.35;;
6463;SDS011;3265;42.694;23.282;2023-08-17T01:01:11;8.95;;;6.35;;
6463;SDS011;3265;42.694;23.282;2023-08-17T01:03:39;11.50;;;6.35;;
6463;SDS011;3265;42.694;23.282;2023-08-17T01:06:07;9.85;;;5.78;;
6463;SDS011;3265;42.694;23.282;2023-08-17T01:08:35;13.18;;;5.57;;
6463;SDS011;3265;42.694;23.282;2023-08-17T01:11:05;11.75;;;5.25;;
6463;SDS011;3265;42.694;23.282;2023-08-17T01:13:43;13.57;;;5.22;;
6463;SDS011;3265;42.694;23.282;2023-08-17T01:16:14;10.73;;;5.78;;
6463;SDS011;3265;42.694;23.282;2023-08-17T01:18:47;7.68;;;5.55;;
6463;SDS011;3265;42.694;23.282;2023-08-17T01:21:16;10.02;;;5.85;;
6463;SDS011;3265;42.694;23.282;2023-08-17T01:23:46;8.07;;;5.50;;
6463;SDS011;3265;42.694;23.282;2023-08-17T01:26:15;10.57;;;5.43;;
6463;SDS011;3265;42.694;23.282;2023-08-17T01:28:42;11.35;;;5.45;;
6463;SDS011;3265;42.694;23.282;2023-08-17T01:31:10;8.18;;;5.70;;
6463;SDS011;3265;42.694;23.282;2023-08-17T01:33:43;9.88;;;5.32;;
6463;SDS011;3265;42.694;23.282;2023-08-17T01:36:18;9.38;;;4.72;;
6463;SDS011;3265;42.694;23.282;2023-08-17T01:38:50;8.75;;;5.35;;
6463;SDS011;3265;42.694;23.282;2023-08-17T01:41:20;10.02;;;5.18;;
6463;SDS011;3265;42.694;23.282;2023-08-17T01:43:48;9.00;;;5.40;;
6463;SDS011;3265;42.694;23.282;2023-08-17T01:46:16;8.88;;;5.07;;
6463;SDS011;3265;42.694;23.282;2023-08-17T01:48:44;7.65;;;5.38;;
6463;SDS011;3265;42.694;23.282;2023-08-17T01:51:16;14.30;;;5.80;;
6463;SDS011;3265;42.694;23.282;2023-08-17T01:53:45;9.18;;;5.53;;
6463;SDS011;3265;42.694;23.282;2023-08-17T01:56:13;9.55;;;5.20;;
6463;SDS011;3265;42.694;23.282;2023-08-17T01:58:40;9.80;;;5.45;;
6463;SDS011;3265;42.694;23.282;2023-08-17T02:01:07;13.85;;;5.60;;
6463;SDS011;3265;42.694;23.282;2023-08-17T02:03:34;10.60;;;5.68;;
6463;SDS011;3265;42.694;23.282;2023-08-17T02:06:01;11.00;;;5.45;;
6463;SDS011;3265;42.694;23.282;2023-08-17T02:08:29;9.18;;;5.10;;
6463;SDS011;3265;42.694;23.282;2023-08-17T02:10:56;12.73;;;5.38;;
6463;SDS011;3265;42.694;23.282;2023-08-17T02:13:24;12.48;;;5.45;;
6463;SDS011;3265;42.694;23.282;2023-08-17T02:15:52;12.57;;;5.40;;
6463;SDS011;3265;42.694;23.282;2023-08-17T02:18:19;11.10;;;5.35;;
6463;SDS011;3265;42.694;23.282;2023-08-17T02:20:46;12.00;;;5.03;;
6463;SDS011;3265;42.694;23.282;2023-08-17T02:23:12;10.15;;;5.30;;
6463;SDS011;3265;42.694;23.282;2023-08-17T02:25:39;12.43;;;5.55;;
6463;SDS011;3265;42.694;23.282;2023-08-17T02:28:06;10.55;;;5.28;;
6463;SDS011;3265;42.694;23.282;2023-08-17T02:30:34;10.05;;;5.10;;
6463;SDS011;3265;42.694;23.282;2023-08-17T02:33:01;12.52;;;5.10;;
6463;SDS011;3265;42.694;23.282;2023-08-17T02:35:28;13.07;;;5.72;;
6463;SDS011;3265;42.694;23.282;2023-08-17T02:37:56;16.30;;;5.90;;
6463;SDS011;3265;42.694;23.282;2023-08-17T02:40:23;13.88;;;5.40;;
6463;SDS011;3265;42.694;23.282;2023-08-17T02:42:49;10.52;;;5.05;;
6463;SDS011;3265;42.694;23.282;2023-08-17T02:45:16;12.07;;;4.93;;
6463;SDS011;3265;42.694;23.282;2023-08-17T02:47:44;6.53;;;4.70;;
6463;SDS011;3265;42.694;23.282;2023-08-17T02:50:11;13.65;;;4.97;;
6463;SDS011;3265;42.694;23.282;2023-08-17T02:52:38;10.88;;;5.50;;
6463;SDS011;3265;42.694;23.282;2023-08-17T02:55:05;9.40;;;4.85;;
6463;SDS011;3265;42.694;23.282;2023-08-17T02:57:32;10.07;;;4.65;;
6463;SDS011;3265;42.694;23.282;2023-08-17T02:59:59;9.98;;;5.40;;
6463;SDS011;3265;42.694;23.282;2023-08-17T03:02:26;5.47;;;4.60;;
6463;SDS011;3265;42.694;23.282;2023-08-17T03:04:54;7.68;;;4.65;;
6463;SDS011;3265;42.694;23.282;2023-08-17T03:07:21;9.40;;;5.25;;
6463;SDS011;3265;42.694;23.282;2023-08-17T03:09:48;11.70;;;5.30;;
6463;SDS011;3265;42.694;23.282;2023-08-17T03:12:15;10.57;;;5.15;;
6463;SDS011;3265;42.694;23.282;2023-08-17T03:14:41;9.27;;;5.18;;
6463;SDS011;3265;42.694;23.282;2023-08-17T03:17:08;10.82;;;5.70;;
6463;SDS011;3265;42.694;23.282;2023-08-17T03:19:35;8.63;;;5.70;;
6463;SDS011;3265;42.694;23.282;2023-08-17T03:22:03;10.75;;;5.43;;
6463;SDS011;3265;42.694;23.282;2023-08-17T03:24:30;8.40;;;5.50;;
6463;SDS011;3265;42.694;23.282;2023-08-17T03:26:57;10.20;;;5.07;;
6463;SDS011;3265;42.694;23.282;2023-08-17T03:29:24;14.40;;;5.57;;
6463;SDS011;3265;42.694;23.282;2023-08-17T03:31:52;11.88;;;5.90;;
6463;SDS011;3265;42.694;23.282;2023-08-17T03:34:19;10.02;;;5.93;;
6463;SDS011;3265;42.694;23.282;2023-08-17T03:36:45;9.18;;;5.95;;
6463;SDS011;3265;42.694;23.282;2023-08-17T03:39:14;9.00;;;5.35;;
6463;SDS011;3265;42.694;23.282;2023-08-17T03:41:41;10.48;;;5.30;;
6463;SDS011;3265;42.694;23.282;2023-08-17T03:44:08;10.85;;;5.18;;
6463;SDS011;3265;42.694;23.282;2023-08-17T03:46:35;9.07;;;5.63;;
6463;SDS011;3265;42.694;23.282;2023-08-17T03:49:01;9.60;;;5.68;;
6463;SDS011;3265;42.694;23.282;2023-08-17T03:51:28;8.18;;;5.75;;
6463;SDS011;3265;42.694;23.282;2023-08-17T03:53:55;9.05;;;4.78;;
6463;SDS011;3265;42.694;23.282;2023-08-17T03:56:23;11.13;;;5.50;;
6463;SDS011;3265;42.694;23.282;2023-08-17T03:58:50;14.90;;;5.22;;
6463;SDS011;3265;42.694;23.282;2023-08-17T04:01:17;13.48;;;5.20;;
6463;SDS011;3265;42.694;23.282;2023-08-17T04:03:43;9.02;;;4.80;;
6463;SDS011;3265;42.694;23.282;2023-08-17T04:06:10;12.75;;;5.20;;
6463;SDS011;3265;42.694;23.282;2023-08-17T04:08:37;9.48;;;5.32;;
6463;SDS011;3265;42.694;23.282;2023-08-17T04:11:04;14.95;;;6.15;;
6463;SDS011;3265;42.694;23.282;2023-08-17T04:13:33;11.65;;;5.50;;
6463;SDS011;3265;42.694;23.282;2023-08-17T04:15:59;13.75;;;5.50;;
6463;SDS011;3265;42.694;23.282;2023-08-17T04:18:26;9.15;;;5.50;;
6463;SDS011;3265;42.694;23.282;2023-08-17T04:20:53;14.07;;;5.95;;
6463;SDS011;3265;42.694;23.282;2023-08-17T04:23:20;14.73;;;5.13;;
6463;SDS011;3265;42.694;23.282;2023-08-17T04:25:47;10.88;;;5.50;;
6463;SDS011;3265;42.694;23.282;2023-08-17T04:28:14;11.60;;;5.78;;
6463;SDS011;3265;42.694;23.282;2023-08-17T04:30:44;15.20;;;5.85;;
6463;SDS011;3265;42.694;23.282;2023-08-17T04:33:11;12.30;;;5.57;;
6463;SDS011;3265;42.694;23.282;2023-08-17T04:35:39;16.65;;;5.88;;
6463;SDS011;3265;42.694;23.282;2023-08-17T04:38:06;14.55;;;6.00;;
6463;SDS011;3265;42.694;23.282;2023-08-17T04:40:32;15.27;;;6.10;;
6463;SDS011;3265;42.694;23.282;2023-08-17T04:42:59;10.77;;;6.35;;
6463;SDS011;3265;42.694;23.282;2023-08-17T04:45:26;10.27;;;6.22;;
6463;SDS011;3265;42.694;23.282;2023-08-17T04:47:54;12.20;;;6.70;;
6463;SDS011;3265;42.694;23.282;2023-08-17T04:50:21;16.35;;;6.95;;
6463;SDS011;3265;42.694;23.282;2023-08-17T04:52:48;16.67;;;7.25;;
6463;SDS011;3265;42.694;23.282;2023-08-17T04:55:15;9.48;;;6.22;;
6463;SDS011;3265;42.694;23.282;2023-08-17T04:57:42;13.43;;;6.22;;
6463;SDS011;3265;42.694;23.282;2023-08-17T05:00:09;14.65;;;6.47;;
6463;SDS011;3265;42.694;23.282;2023-08-17T05:02:37;9.52;;;5.65;;
6463;SDS011;3265;42.694;23.282;2023-08-17T05:05:06;8.70;;;5.90;;
6463;SDS011;3265;42.694;23.282;2023-08-17T05:07:36;11.57;;;5.97;;
6463;SDS011;3265;42.694;23.282;2023-08-17T05:10:03;12.43;;;5.90;;
6463;SDS011;3265;42.694;23.282;2023-08-17T05:12:31;19.02;;;5.72;;
6463;SDS011;3265;42.694;23.282;2023-08-17T05:14:58;13.25;;;6.03;;
6463;SDS011;3265;42.694;23.282;2023-08-17T05:17:27;11.50;;;5.60;;
6463;SDS011;3265;42.694;23.282;2023-08-17T05:19:54;12.32;;;5.78;;
6463;SDS011;3265;42.694;23.282;2023-08-17T05:22:22;13.05;;;6.00;;
6463;SDS011;3265;42.694;23.282;2023-08-17T05:24:49;12.48;;;5.43;;
6463;SDS011;3265;42.694;23.282;2023-08-17T05:27:16;12.88;;;5.35;;
6463;SDS011;3265;42.694;23.282;2023-08-17T05:29:43;15.68;;;6.18;;
6463;SDS011;3265;42.694;23.282;2023-08-17T05:32:09;12.00;;;5.50;;
6463;SDS011;3265;42.694;23.282;2023-08-17T05:34:36;10.05;;;5.78;;
6463;SDS011;3265;42.694;23.282;2023-08-17T05:37:03;10.93;;;4.97;;
6463;SDS011;3265;42.694;23.282;2023-08-17T05:39:31;13.85;;;5.82;;
6463;SDS011;3265;42.694;23.282;2023-08-17T05:41:58;9.55;;;5.45;;
6463;SDS011;3265;42.694;23.282;2023-08-17T05:44:25;9.27;;;5.00;;
6463;SDS011;3265;42.694;23.282;2023-08-17T05:46:51;10.07;;;5.25;;
6463;SDS011;3265;42.694;23.282;2023-08-17T05:49:18;11.80;;;5.18;;
6463;SDS011;3265;42.694;23.282;2023-08-17T05:51:45;11.35;;;5.00;;
6463;SDS011;3265;42.694;23.282;2023-08-17T05:54:12;10.63;;;5.00;;
6463;SDS011;3265;42.694;23.282;2023-08-17T05:56:40;11.20;;;5.05;;
6463;SDS011;3265;42.694;23.282;2023-08-17T05:59:09;10.35;;;4.75;;
6463;SDS011;3265;42.694;23.282;2023-08-17T06:01:36;9.43;;;4.93;;
6463;SDS011;3265;42.694;23.282;2023-08-17T06:04:03;13.38;;;5.40;;
6463;SDS011;3265;42.694;23.282;2023-08-17T06:06:31;9.48;;;5.22;;
6463;SDS011;3265;42.694;23.282;2023-08-17T06:08:58;12.07;;;5.50;;
6463;SDS011;3265;42.694;23.282;2023-08-17T06:11:24;13.98;;;6.07;;
6463;SDS011;3265;42.694;23.282;2023-08-17T06:13:53;10.00;;;6.03;;
6463;SDS011;3265;42.694;23.282;2023-08-17T06:16:19;15.55;;;5.75;;
6463;SDS011;3265;42.694;23.282;2023-08-17T06:18:46;10.23;;;6.05;;
6463;SDS011;3265;42.694;23.282;2023-08-17T06:21:13;10.18;;;5.72;;
6463;SDS011;3265;42.694;23.282;2023-08-17T06:23:40;10.68;;;6.32;;
6463;SDS011;3265;42.694;23.282;2023-08-17T06:26:07;10.70;;;5.90;;
6463;SDS011;3265;42.694;23.282;2023-08-17T06:28:34;12.23;;;6.22;;
6463;SDS011;3265;42.694;23.282;2023-08-17T06:31:02;13.27;;;7.10;;
6463;SDS011;3265;42.694;23.282;2023-08-17T06:33:29;10.35;;;6.57;;
6463;SDS011;3265;42.694;23.282;2023-08-17T06:35:55;16.80;;;6.78;;
6463;SDS011;3265;42.694;23.282;2023-08-17T06:38:22;15.25;;;6.97;;
6463;SDS011;3265;42.694;23.282;2023-08-17T06:40:49;12.85;;;7.38;;
6463;SDS011;3265;42.694;23.282;2023-08-17T06:43:17;9.63;;;5.40;;
6463;SDS011;3265;42.694;23.282;2023-08-17T06:45:44;7.03;;;4.50;;
6463;SDS011;3265;42.694;23.282;2023-08-17T06:48:12;11.30;;;5.78;;
6463;SDS011;3265;42.694;23.282;2023-08-17T06:50:39;13.07;;;6.03;;
6463;SDS011;3265;42.694;23.282;2023-08-17T06:53:06;11.90;;;6.25;;
6463;SDS011;3265;42.694;23.282;2023-08-17T06:55:33;10.57;;;5.88;;
6463;SDS011;3265;42.694;23.282;2023-08-17T06:58:00;14.10;;;7.03;;
6463;SDS011;3265;42.694;23.282;2023-08-17T07:00:27;13.50;;;6.38;;
6463;SDS011;3265;42.694;23.282;2023-08-17T07:02:54;11.90;;;6.30;;
6463;SDS011;3265;42.694;23.282;2023-08-17T07:05:22;7.78;;;5.90;;
6463;SDS011;3265;42.694;23.282;2023-08-17T07:07:49;10.18;;;6.30;;
6463;SDS011;3265;42.694;23.282;2023-08-17T07:10:16;10.18;;;5.80;;
6463;SDS011;3265;42.694;23.282;2023-08-17T07:12:44;9.65;;;6.18;;
6463;SDS011;3265;42.694;23.282;2023-08-17T07:15:12;10.18;;;6.10;;
6463;SDS011;3265;42.694;23.282;2023-08-17T07:17:40;11.25;;;6.28;;
6463;SDS011;3265;42.694;23.282;2023-08-17T07:20:07;7.82;;;5.93;;
6463;SDS011;3265;42.694;23.282;2023-08-17T07:22:37;6.30;;;5.70;;
6463;SDS011;3265;42.694;23.282;2023-08-17T07:25:04;9.35;;;6.00;;
6463;SDS011;3265;42.694;23.282;2023-08-17T07:27:34;14.93;;;6.18;;
6463;SDS011;3265;42.694;23.282;2023-08-17T07:30:00;11.43;;;6.60;;
6463;SDS011;3265;42.694;23.282;2023-08-17T07:32:27;10.88;;;6.57;;
6463;SDS011;3265;42.694;23.282;2023-08-17T07:34:54;7.82;;;5.28;;
6463;SDS011;3265;42.694;23.282;2023-08-17T07:37:21;7.85;;;5.75;;
6463;SDS011;3265;42.694;23.282;2023-08-17T07:39:49;6.95;;;5.35;;
6463;SDS011;3265;42.694;23.282;2023-08-17T07:42:16;12.73;;;5.07;;
6463;SDS011;3265;42.694;23.282;2023-08-17T07:44:43;7.80;;;5.00;;
6463;SDS011;3265;42.694;23.282;2023-08-17T07:47:09;15.07;;;5.35;;
6463;SDS011;3265;42.694;23.282;2023-08-17T07:49:36;10.13;;;5.53;;
6463;SDS011;3265;42.694;23.282;2023-08-17T07:52:03;17.55;;;5.43;;
6463;SDS011;3265;42.694;23.282;2023-08-17T07:54:30;15.88;;;5.63;;
6463;SDS011;3265;42.694;23.282;2023-08-17T07:56:58;8.35;;;5.00;;
6463;SDS011;3265;42.694;23.282;2023-08-17T07:59:25;6.38;;;4.82;;
6463;SDS011;3265;42.694;23.282;2023-08-17T08:01:52;9.75;;;5.47;;
6463;SDS011;3265;42.694;23.282;2023-08-17T08:04:19;8.85;;;4.95;;
6463;SDS011;3265;42.694;23.282;2023-08-17T08:06:46;8.15;;;4.88;;
6463;SDS011;3265;42.694;23.282;2023-08-17T08:09:13;8.65;;;4.82;;
6463;SDS011;3265;42.694;23.282;2023-08-17T08:11:40;6.18;;;4.97;;
6463;SDS011;3265;42.694;23.282;2023-08-17T08:14:08;7.63;;;4.63;;
6463;SDS011;3265;42.694;23.282;2023-08-17T08:16:35;11.35;;;4.55;;
6463;SDS011;3265;42.694;23.282;2023-08-17T08:19:02;8.15;;;5.05;;
6463;SDS011;3265;42.694;23.282;2023-08-17T08:21:28;6.03;;;4.55;;
6463;SDS011;3265;42.694;23.282;2023-08-17T08:23:55;8.63;;;4.75;;
6463;SDS011;3265;42.694;23.282;2023-08-17T08:26:22;11.35;;;5.57;;
6463;SDS011;3265;42.694;23.282;2023-08-17T08:28:49;10.75;;;4.40;;
6463;SDS011;3265;42.694;23.282;2023-08-17T08:31:18;8.43;;;4.35;;
6463;SDS011;3265;42.694;23.282;2023-08-17T08:33:45;7.18;;;4.10;;
6463;SDS011;3265;42.694;23.282;2023-08-17T08:36:12;5.57;;;4.40;;
6463;SDS011;3265;42.694;23.282;2023-08-17T08:38:39;6.53;;;4.00;;
6463;SDS011;3265;42.694;23.282;2023-08-17T08:41:08;8.25;;;4.15;;
6463;SDS011;3265;42.694;23.282;2023-08-17T08:43:36;7.55;;;4.15;;
6463;SDS011;3265;42.694;23.282;2023-08-17T08:46:03;11.63;;;4.88;;
6463;SDS011;3265;42.694;23.282;2023-08-17T08:48:31;5.78;;;3.97;;
6463;SDS011;3265;42.694;23.282;2023-08-17T08:50:59;8.85;;;4.50;;
6463;SDS011;3265;42.694;23.282;2023-08-17T08:53:28;9.55;;;4.65;;
6463;SDS011;3265;42.694;23.282;2023-08-17T08:55:59;6.07;;;4.35;;
6463;SDS011;3265;42.694;23.282;2023-08-17T08:58:26;8.63;;;4.50;;
6463;SDS011;3265;42.694;23.282;2023-08-17T09:00:55;9.90;;;4.65;;
6463;SDS011;3265;42.694;23.282;2023-08-17T09:03:24;7.18;;;4.53;;
6463;SDS011;3265;42.694;23.282;2023-08-17T09:05:52;7.82;;;4.65;;
6463;SDS011;3265;42.694;23.282;2023-08-17T09:08:24;10.52;;;4.80;;
6463;SDS011;3265;42.694;23.282;2023-08-17T09:10:53;19.52;;;5.22;;
6463;SDS011;3265;42.694;23.282;2023-08-17T09:13:20;11.98;;;4.90;;
6463;SDS011;3265;42.694;23.282;2023-08-17T09:15:47;9.95;;;5.00;;
6463;SDS011;3265;42.694;23.282;2023-08-17T09:18:14;7.35;;;4.72;;
6463;SDS011;3265;42.694;23.282;2023-08-17T09:20:42;8.77;;;4.63;;
6463;SDS011;3265;42.694;23.282;2023-08-17T09:23:12;8.85;;;4.72;;
6463;SDS011;3265;42.694;23.282;2023-08-17T09:25:42;7.07;;;4.63;;
6463;SDS011;3265;42.694;23.282;2023-08-17T09:28:11;7.60;;;4.47;;
6463;SDS011;3265;42.694;23.282;2023-08-17T09:30:49;6.93;;;4.60;;
6463;SDS011;3265;42.694;23.282;2023-08-17T09:33:17;5.18;;;4.20;;
6463;SDS011;3265;42.694;23.282;2023-08-17T09:35:45;10.10;;;4.47;;
6463;SDS011;3265;42.694;23.282;2023-08-17T09:38:13;8.35;;;3.78;;
6463;SDS011;3265;42.694;23.282;2023-08-17T09:40:40;8.02;;;4.13;;
6463;SDS011;3265;42.694;23.282;2023-08-17T09:43:08;13.48;;;3.97;;
6463;SDS011;3265;42.694;23.282;2023-08-17T09:45:35;6.60;;;3.92;;
6463;SDS011;3265;42.694;23.282;2023-08-17T09:48:02;9.73;;;4.20;;
6463;SDS011;3265;42.694;23.282;2023-08-17T09:50:30;8.35;;;4.38;;
6463;SDS011;3265;42.694;23.282;2023-08-17T09:52:57;10.30;;;4.45;;
6463;SDS011;3265;42.694;23.282;2023-08-17T09:55:25;5.18;;;4.10;;
6463;SDS011;3265;42.694;23.282;2023-08-17T09:57:52;7.60;;;4.45;;
6463;SDS011;3265;42.694;23.282;2023-08-17T10:00:19;6.63;;;4.07;;
6463;SDS011;3265;42.694;23.282;2023-08-17T10:02:47;4.00;;;3.60;;
6463;SDS011;3265;42.694;23.282;2023-08-17T10:05:16;11.00;;;4.00;;
6463;SDS011;3265;42.694;23.282;2023-08-17T10:07:46;6.45;;;4.03;;
6463;SDS011;3265;42.694;23.282;2023-08-17T10:10:16;5.30;;;3.50;;
6463;SDS011;3265;42.694;23.282;2023-08-17T10:12:52;5.10;;;3.53;;
6463;SDS011;3265;42.694;23.282;2023-08-17T10:15:29;5.00;;;3.53;;
6463;SDS011;3265;42.694;23.282;2023-08-17T10:17:58;7.90;;;3.30;;
6463;SDS011;3265;42.694;23.282;2023-08-17T10:20:35;9.40;;;3.60;;
6463;SDS011;3265;42.694;23.282;2023-08-17T10:23:08;3.90;;;3.03;;
6463;SDS011;3265;42.694;23.282;2023-08-17T10:25:41;7.43;;;2.92;;
6463;SDS011;3265;42.694;23.282;2023-08-17T10:28:13;7.70;;;3.63;;
6463;SDS011;3265;42.694;23.282;2023-08-17T10:30:42;5.88;;;3.53;;
6463;SDS011;3265;42.694;23.282;2023-08-17T10:33:09;5.05;;;3.22;;
6463;SDS011;3265;42.694;23.282;2023-08-17T10:35:37;7.72;;;3.17;;
6463;SDS011;3265;42.694;23.282;2023-08-17T10:38:04;5.28;;;3.30;;
6463;SDS011;3265;42.694;23.282;2023-08-17T10:40:35;10.98;;;3.92;;
6463;SDS011;3265;42.694;23.282;2023-08-17T10:43:02;5.40;;;3.30;;
6463;SDS011;3265;42.694;23.282;2023-08-17T10:45:31;8.75;;;3.33;;
6463;SDS011;3265;42.694;23.282;2023-08-17T10:48:00;7.07;;;3.03;;
6463;SDS011;3265;42.694;23.282;2023-08-17T10:50:41;7.53;;;3.13;;
6463;SDS011;3265;42.694;23.282;2023-08-17T10:53:25;7.80;;;3.17;;
6463;SDS011;3265;42.694;23.282;2023-08-17T10:55:56;5.68;;;3.30;;
6463;SDS011;3265;42.694;23.282;2023-08-17T10:58:23;3.85;;;3.05;;
6463;SDS011;3265;42.694;23.282;2023-08-17T11:00:55;9.25;;;3.25;;
6463;SDS011;3265;42.694;23.282;2023-08-17T11:03:22;5.10;;;3.03;;
6463;SDS011;3265;42.694;23.282;2023-08-17T11:05:50;6.18;;;3.30;;
6463;SDS011;3265;42.694;23.282;2023-08-17T11:08:22;4.07;;;3.20;;
6463;SDS011;3265;42.694;23.282;2023-08-17T11:11:02;8.10;;;3.85;;
6463;SDS011;3265;42.694;23.282;2023-08-17T11:13:31;5.15;;;3.30;;
6463;SDS011;3265;42.694;23.282;2023-08-17T11:16:00;7.00;;;3.83;;
6463;SDS011;3265;42.694;23.282;2023-08-17T11:18:28;4.45;;;3.00;;
6463;SDS011;3265;42.694;23.282;2023-08-17T11:20:55;3.75;;;3.03;;
6463;SDS011;3265;42.694;23.282;2023-08-17T11:23:23;9.85;;;4.20;;
6463;SDS011;3265;42.694;23.282;2023-08-17T11:25:54;4.20;;;3.20;;
6463;SDS011;3265;42.694;23.282;2023-08-17T11:28:21;6.35;;;3.50;;
6463;SDS011;3265;42.694;23.282;2023-08-17T11:30:56;9.57;;;3.03;;
6463;SDS011;3265;42.694;23.282;2023-08-17T11:33:24;5.70;;;3.13;;
6463;SDS011;3265;42.694;23.282;2023-08-17T11:35:53;6.80;;;3.50;;
6463;SDS011;3265;42.694;23.282;2023-08-17T11:38:20;7.25;;;4.00;;
6463;SDS011;3265;42.694;23.282;2023-08-17T11:40:47;5.53;;;3.97;;
6463;SDS011;3265;42.694;23.282;2023-08-17T11:43:17;4.90;;;4.20;;
6463;SDS011;3265;42.694;23.282;2023-08-17T11:45:45;5.50;;;3.72;;
6463;SDS011;3265;42.694;23.282;2023-08-17T11:48:12;6.18;;;3.55;;
6463;SDS011;3265;42.694;23.282;2023-08-17T11:50:43;7.68;;;3.63;;
6463;SDS011;3265;42.694;23.282;2023-08-17T11:53:10;6.25;;;3.50;;
6463;SDS011;3265;42.694;23.282;2023-08-17T11:55:37;5.38;;;3.15;;
6463;SDS011;3265;42.694;23.282;2023-08-17T11:58:04;6.55;;;3.47;;
6463;SDS011;3265;42.694;23.282;2023-08-17T12:00:34;6.85;;;3.53;;
6463;SDS011;3265;42.694;23.282;2023-08-17T12:03:02;4.47;;;3.67;;
6463;SDS011;3265;42.694;23.282;2023-08-17T12:05:30;6.28;;;3.40;;
6463;SDS011;3265;42.694;23.282;2023-08-17T12:08:00;8.88;;;3.85;;
6463;SDS011;3265;42.694;23.282;2023-08-17T12:10:27;6.85;;;3.80;;
6463;SDS011;3265;42.694;23.282;2023-08-17T12:12:56;8.38;;;4.20;;
6463;SDS011;3265;42.694;23.282;2023-08-17T12:15:24;11.45;;;4.13;;
6463;SDS011;3265;42.694;23.282;2023-08-17T12:17:51;8.07;;;3.55;;
6463;SDS011;3265;42.694;23.282;2023-08-17T12:20:19;5.25;;;4.05;;
6463;SDS011;3265;42.694;23.282;2023-08-17T12:22:47;6.47;;;3.53;;
6463;SDS011;3265;42.694;23.282;2023-08-17T12:25:15;7.35;;;4.53;;
6463;SDS011;3265;42.694;23.282;2023-08-17T12:27:46;11.77;;;4.38;;
6463;SDS011;3265;42.694;23.282;2023-08-17T12:30:14;10.05;;;3.90;;
6463;SDS011;3265;42.694;23.282;2023-08-17T12:32:51;6.70;;;4.70;;
6463;SDS011;3265;42.694;23.282;2023-08-17T12:35:24;5.18;;;4.43;;
6463;SDS011;3265;42.694;23.282;2023-08-17T12:37:51;8.93;;;4.65;;
6463;SDS011;3265;42.694;23.282;2023-08-17T12:40:20;12.43;;;4.85;;
6463;SDS011;3265;42.694;23.282;2023-08-17T12:42:48;7.75;;;4.50;;
6463;SDS011;3265;42.694;23.282;2023-08-17T12:45:18;6.28;;;4.50;;
6463;SDS011;3265;42.694;23.282;2023-08-17T12:47:44;7.38;;;4.97;;
6463;SDS011;3265;42.694;23.282;2023-08-17T12:50:11;5.30;;;4.55;;
6463;SDS011;3265;42.694;23.282;2023-08-17T12:52:38;12.13;;;5.13;;
6463;SDS011;3265;42.694;23.282;2023-08-17T12:55:05;6.22;;;4.43;;
6463;SDS011;3265;42.694;23.282;2023-08-17T12:57:34;7.57;;;5.30;;
6463;SDS011;3265;42.694;23.282;2023-08-17T13:00:01;7.15;;;5.03;;
6463;SDS011;3265;42.694;23.282;2023-08-17T13:02:28;5.85;;;4.80;;
6463;SDS011;3265;42.694;23.282;2023-08-17T13:04:54;9.68;;;4.95;;
6463;SDS011;3265;42.694;23.282;2023-08-17T13:07:21;7.93;;;5.15;;
6463;SDS011;3265;42.694;23.282;2023-08-17T13:09:48;7.45;;;4.55;;
6463;SDS011;3265;42.694;23.282;2023-08-17T13:12:15;9.88;;;4.82;;
6463;SDS011;3265;42.694;23.282;2023-08-17T13:14:43;8.30;;;5.07;;
6463;SDS011;3265;42.694;23.282;2023-08-17T13:17:10;7.15;;;4.97;;
6463;SDS011;3265;42.694;23.282;2023-08-17T13:19:39;6.88;;;4.60;;
6463;SDS011;3265;42.694;23.282;2023-08-17T13:22:06;9.48;;;4.82;;
6463;SDS011;3265;42.694;23.282;2023-08-17T13:24:33;6.65;;;5.00;;
6463;SDS011;3265;42.694;23.282;2023-08-17T13:27:00;8.40;;;5.00;;
6463;SDS011;3265;42.694;23.282;2023-08-17T13:29:27;5.40;;;4.90;;
6463;SDS011;3265;42.694;23.282;2023-08-17T13:31:55;7.00;;;4.97;;
6463;SDS011;3265;42.694;23.282;2023-08-17T13:34:22;7.75;;;4.88;;
6463;SDS011;3265;42.694;23.282;2023-08-17T13:36:49;5.72;;;4.70;;
6463;SDS011;3265;42.694;23.282;2023-08-17T13:39:16;8.27;;;4.88;;
6463;SDS011;3265;42.694;23.282;2023-08-17T13:41:43;5.07;;;4.57;;
6463;SDS011;3265;42.694;23.282;2023-08-17T13:44:10;5.97;;;4.97;;
6463;SDS011;3265;42.694;23.282;2023-08-17T13:46:37;8.48;;;4.80;;
6463;SDS011;3265;42.694;23.282;2023-08-17T13:49:05;7.50;;;5.00;;
6463;SDS011;3265;42.694;23.282;2023-08-17T13:51:32;6.20;;;5.00;;
6463;SDS011;3265;42.694;23.282;2023-08-17T13:53:59;13.73;;;4.68;;
6463;SDS011;3265;42.694;23.282;2023-08-17T13:56:25;6.05;;;4.72;;
6463;SDS011;3265;42.694;23.282;2023-08-17T13:58:53;8.13;;;5.03;;
6463;SDS011;3265;42.694;23.282;2023-08-17T14:01:19;8.88;;;5.40;;
6463;SDS011;3265;42.694;23.282;2023-08-17T14:03:46;6.93;;;4.30;;
6463;SDS011;3265;42.694;23.282;2023-08-17T14:06:14;6.40;;;3.90;;
6463;SDS011;3265;42.694;23.282;2023-08-17T14:08:43;6.47;;;4.63;;
6463;SDS011;3265;42.694;23.282;2023-08-17T14:11:09;7.32;;;4.25;;
6463;SDS011;3265;42.694;23.282;2023-08-17T14:13:36;8.13;;;4.65;;
6463;SDS011;3265;42.694;23.282;2023-08-17T14:16:04;7.38;;;4.75;;
6463;SDS011;3265;42.694;23.282;2023-08-17T14:18:31;8.55;;;4.32;;
6463;SDS011;3265;42.694;23.282;2023-08-17T14:20:58;5.30;;;4.13;;
6463;SDS011;3265;42.694;23.282;2023-08-17T14:23:26;7.75;;;4.40;;
6463;SDS011;3265;42.694;23.282;2023-08-17T14:25:53;7.18;;;4.80;;
6463;SDS011;3265;42.694;23.282;2023-08-17T14:28:20;8.55;;;4.22;;
6463;SDS011;3265;42.694;23.282;2023-08-17T14:30:47;5.50;;;3.67;;
6463;SDS011;3265;42.694;23.282;2023-08-17T14:33:14;5.43;;;3.78;;
6463;SDS011;3265;42.694;23.282;2023-08-17T14:35:40;7.25;;;3.72;;
6463;SDS011;3265;42.694;23.282;2023-08-17T14:38:07;5.78;;;3.90;;
6463;SDS011;3265;42.694;23.282;2023-08-17T14:40:41;4.82;;;3.65;;
6463;SDS011;3265;42.694;23.282;2023-08-17T14:43:08;5.97;;;3.97;;
6463;SDS011;3265;42.694;23.282;2023-08-17T14:45:36;6.25;;;4.32;;
6463;SDS011;3265;42.694;23.282;2023-08-17T14:48:03;8.10;;;4.15;;
6463;SDS011;3265;42.694;23.282;2023-08-17T14:50:31;11.98;;;3.70;;
6463;SDS011;3265;42.694;23.282;2023-08-17T14:52:58;8.45;;;3.90;;
6463;SDS011;3265;42.694;23.282;2023-08-17T14:55:27;6.93;;;3.70;;
6463;SDS011;3265;42.694;23.282;2023-08-17T14:57:55;7.38;;;3.83;;
6463;SDS011;3265;42.694;23.282;2023-08-17T15:00:22;5.30;;;3.70;;